Weather reports worldwide

Advertisment
Passo Rolle, Italy (16021): temperature & dewpoint: 30.03.2020 22:00:00 - 05.04.2020 22:00:00 (CEST)Passo Rolle, Italy (16021): wind speed: 30.03.2020 22:00:00 - 05.04.2020 22:00:00 (CEST)Passo Rolle, Italy (16021): wind direction: 30.03.2020 22:00:00 - 05.04.2020 22:00:00 (CEST)Passo Rolle, Italy (16021): visibility: 30.03.2020 22:00:00 - 05.04.2020 22:00:00 (CEST)
Date & Time tt [°C] td [°C] ff [km/h] ff [kn] dd vv [km]
05.04.2020 22:00:00 - - - - - -
05.04.2020 21:00:00 - - - - - -
05.04.2020 20:00:00 3,8 -7,9 8 4 ESE 25
05.04.2020 19:00:00 6,0 -7,0 11 6 SE 10
05.04.2020 18:00:00 5,0 -8,0 15 8 SSE 10
05.04.2020 17:00:00 5,4 -7,8 15 8 SE 35
05.04.2020 16:00:00 5,0 -9,0 13 7 SE 10
05.04.2020 15:00:00 4,0 -5,0 11 6 ESE 10
05.04.2020 14:00:00 3,0 -3,8 9 5 SE 50
05.04.2020 13:00:00 2,0 -4,0 5 3 SE 10
05.04.2020 12:00:00 1,0 -2,0 5 3 ESE 10
05.04.2020 11:00:00 -1,0 -4,3 8 4 SE 30
05.04.2020 10:00:00 -2,0 -3,0 4 2 ESE 10
05.04.2020 09:00:00 -2,0 -3,0 2 1 N 10
05.04.2020 08:00:00 -2,2 -2,7 8 4 NNW 20
05.04.2020 07:00:00 -2,0 -3,0 11 6 N 10
05.04.2020 06:00:00 -2,0 -4,0 9 5 NNW 10
05.04.2020 05:00:00 -2,0 -4,8 11 6 NNW 10
05.04.2020 04:00:00 - - - - - -
05.04.2020 03:00:00 - - - - - -
05.04.2020 02:00:00 -1,0 -2,9 4 2 NNE 10
05.04.2020 01:00:00 - - - - - -
05.04.2020 00:00:00 - - - - - -
04.04.2020 23:00:00 -0,4 -3,6 15 8 ESE 10
04.04.2020 22:00:00 - - - - - -
04.04.2020 21:00:00 - - - - - -
04.04.2020 20:00:00 4,2 -3,8 18 10 SE 30
04.04.2020 19:00:00 4,0 -4,0 16 9 SE 10
04.04.2020 18:00:00 4,0 -5,0 15 8 SE 10
04.04.2020 17:00:00 3,6 -6,4 11 6 SE 30
04.04.2020 16:00:00 2,0 -7,0 4 2 NE 10
04.04.2020 15:00:00 3,0 -5,0 5 3 E 10
04.04.2020 14:00:00 2,2 -5,4 5 3 NE 30
04.04.2020 13:00:00 2,0 -5,0 4 2 NNW 10
04.04.2020 12:00:00 3,0 -2,0 8 4 NNE 10
04.04.2020 11:00:00 0,6 -2,4 5 3 SE 30
04.04.2020 10:00:00 -2,0 -4,0 8 4 ESE 10
04.04.2020 09:00:00 -2,0 -5,0 13 7 ESE 10
04.04.2020 08:00:00 -2,0 -5,6 15 8 SE 30
04.04.2020 07:00:00 -2,0 -6,0 13 7 SE 10
04.04.2020 06:00:00 -2,0 -6,0 8 4 S 10
04.04.2020 05:00:00 -2,0 -6,7 4 2 SSE 10
04.04.2020 04:00:00 - - - - - -
04.04.2020 03:00:00 - - - - - -
04.04.2020 02:00:00 -2,2 -5,9 2 1 WNW 10
04.04.2020 01:00:00 - - - - - -
04.04.2020 00:00:00 - - - - - -
03.04.2020 23:00:00 -1,8 -5,1 5 3 E 10
03.04.2020 22:00:00 - - - - - -
03.04.2020 21:00:00 - - - - - -
03.04.2020 20:00:00 1,4 -4,9 16 9 SE 30
03.04.2020 19:00:00 2,0 -6,0 16 9 SE 10
03.04.2020 18:00:00 2,0 -6,0 18 10 SE 10
03.04.2020 17:00:00 3,0 -6,7 15 8 SE 30
03.04.2020 16:00:00 4,0 -6,0 13 7 SSE 10
03.04.2020 15:00:00 3,0 -7,0 13 7 SSE 10
03.04.2020 14:00:00 3,2 -7,9 11 6 S 60
03.04.2020 13:00:00 2,0 -9,0 15 8 SSE 10
03.04.2020 12:00:00 1,0 -7,0 8 4 SE 10
03.04.2020 11:00:00 -0,6 -8,8 4 2 NE 72
03.04.2020 10:00:00 -2,0 -8,0 5 3 WNW 10
03.04.2020 09:00:00 -2,0 -8,0 9 5 NNW 10
03.04.2020 08:00:00 -2,8 -7,5 8 4 N 40
03.04.2020 07:00:00 -3,0 -6,0 9 5 NNW 10
03.04.2020 06:00:00 -3,0 -6,0 9 5 NNW 10
03.04.2020 05:00:00 -3,0 -6,0 11 6 NNW 10
03.04.2020 04:00:00 - - - - - -
03.04.2020 03:00:00 - - - - - -
03.04.2020 02:00:00 -2,6 -5,6 9 5 NW 10
03.04.2020 01:00:00 - - - - - -
03.04.2020 00:00:00 - - - - - -
02.04.2020 23:00:00 -2,0 -5,0 4 2 WNW 10
02.04.2020 22:00:00 - - - - - -
02.04.2020 21:00:00 - - - - - -
02.04.2020 20:00:00 0,4 -3,7 13 7 SE 30
02.04.2020 19:00:00 1,0 -4,0 16 9 ESE 10
02.04.2020 18:00:00 2,0 -3,0 15 8 SE 10
02.04.2020 17:00:00 1,6 -3,7 18 10 SE 40
02.04.2020 16:00:00 2,0 -4,0 15 8 SSE 10
02.04.2020 15:00:00 1,0 -4,0 18 10 SE 10
02.04.2020 14:00:00 0,8 -4,0 21 11 SE 72
02.04.2020 13:00:00 0,0 -8,0 18 10 SE 10
02.04.2020 12:00:00 -1,0 -9,0 16 9 ESE 10
02.04.2020 11:00:00 -1,6 -10,7 5 3 ESE 72
02.04.2020 10:00:00 -3,0 -13,0 0 0 N 10
02.04.2020 09:00:00 -4,0 -11,0 0 0 N 10
02.04.2020 08:00:00 -4,4 -9,0 8 4 NNW 60
02.04.2020 07:00:00 -5,0 -9,0 8 4 N 10
02.04.2020 06:00:00 - - - - - -
02.04.2020 05:00:00 -4,8 -6,8 11 6 NNW 10
02.04.2020 04:00:00 - - - - - -
02.04.2020 03:00:00 - - - - - -
02.04.2020 02:00:00 -4,8 -6,5 5 3 NW 10
02.04.2020 01:00:00 - - - - - -
02.04.2020 00:00:00 - - - - - -
01.04.2020 23:00:00 -4,8 -6,5 5 3 NW 10
01.04.2020 22:00:00 - - - - - -
01.04.2020 21:00:00 - - - - - -
01.04.2020 20:00:00 -1,2 -5,6 4 2 NW 40
01.04.2020 19:00:00 -1,0 -5,0 8 4 ESE 10
01.04.2020 18:00:00 -2,0 -5,0 11 6 ESE 10
01.04.2020 17:00:00 -2,0 -5,7 11 6 ESE 40
01.04.2020 16:00:00 -3,0 -6,0 11 6 ESE 10
01.04.2020 15:00:00 -3,0 -6,0 13 7 ESE 10
01.04.2020 14:00:00 -3,2 -6,3 13 7 ESE 30
01.04.2020 13:00:00 -4,0 -7,0 11 6 ESE 10
01.04.2020 12:00:00 -5,0 -8,0 5 3 E 10
01.04.2020 11:00:00 -6,0 -10,8 5 3 N 30
01.04.2020 10:00:00 -8,0 -10,0 15 8 N 10
01.04.2020 09:00:00 -8,0 -10,0 18 10 N 10
01.04.2020 08:00:00 -9,2 -9,8 18 10 N 30
01.04.2020 07:00:00 9,0 9,0 16 9 N 10
01.04.2020 06:00:00 -9,0 -11,0 18 10 N 10
01.04.2020 05:00:00 -9,2 -11,7 13 7 N 10
01.04.2020 04:00:00 - - - - - -
01.04.2020 03:00:00 - - - - - -
01.04.2020 02:00:00 -8,6 -12,9 5 3 WNW 10
01.04.2020 01:00:00 - - - - - -
01.04.2020 00:00:00 - - - - - -
31.03.2020 23:00:00 -8,0 -9,2 5 3 E 10
31.03.2020 22:00:00 - - - - - -
31.03.2020 21:00:00 - - - - - -
31.03.2020 20:00:00 -5,8 -15,0 8 4 NNW 10
31.03.2020 19:00:00 -6,0 -14,0 16 9 N 10
31.03.2020 18:00:00 -5,0 -14,0 21 11 N 10
31.03.2020 17:00:00 -3,8 -15,4 13 7 N 30
31.03.2020 16:00:00 -4,0 -12,0 9 5 NNE 10
31.03.2020 15:00:00 -4,0 -17,0 8 4 N 10
31.03.2020 14:00:00 -3,8 -17,7 4 2 N 30
31.03.2020 13:00:00 -5,0 -19,0 11 6 E 10
31.03.2020 12:00:00 -5,0 -14,0 11 6 NNE 10
31.03.2020 11:00:00 -5,6 -10,9 5 3 E 30
31.03.2020 10:00:00 -7,0 -10,0 8 4 ESE 10
31.03.2020 09:00:00 -8,0 -11,0 8 4 E 10
31.03.2020 08:00:00 -8,4 -13,8 5 3 ESE 30
31.03.2020 07:00:00 -8,0 -12,0 8 4 N 10
31.03.2020 06:00:00 -8,0 -10,0 9 5 NNW 10
31.03.2020 05:00:00 -6,8 -8,9 8 4 NNW 3,0
31.03.2020 04:00:00 - - - - - -
31.03.2020 03:00:00 - - - - - -
31.03.2020 02:00:00 -5,4 -7,5 13 7 NNW 0,8
31.03.2020 01:00:00 - - - - - -
31.03.2020 00:00:00 - - - - - -
30.03.2020 23:00:00 -4,0 -4,8 16 9 W 0,1
30.03.2020 22:00:00 - - - - - -

tt = temperature
td = dewpoint
ff = wind speed
dd = wind direction
vv = visibility

Next stations